Time;durP1;ratioP1;P1;durP2;ratioP2;P2;SDS_P1;SDS_P2;PMS_P1;PMS_P2;Temp;Humidity;BMP_temperature;BMP_pressure;BME280_temperature;BME280_humidity;BME280_pressure;Samples;Min_cycle;Max_cycle;Signal;HPM_P1;HPM_P2
2023/02/22 00:00:41;;;;;;;44.00;26.43;;;7.90;99.90;;;;;;5026652;28;20199;-82
2023/02/22 00:03:11;;;;;;;39.80;22.17;;;7.90;99.90;;;;;;5026562;28;20490;-85
2023/02/22 00:05:39;;;;;;;46.33;25.40;;;7.90;99.90;;;;;;5026617;28;20650;-83
2023/02/22 00:08:10;;;;;;;47.83;26.30;;;7.80;99.90;;;;;;5026319;28;20210;-81
2023/02/22 00:10:38;;;;;;;46.90;27.23;;;7.80;99.90;;;;;;5026398;28;20555;-82
2023/02/22 00:13:07;;;;;;;46.33;24.60;;;7.80;99.90;;;;;;5010254;28;20303;-81
2023/02/22 00:15:35;;;;;;;44.23;24.70;;;7.80;99.90;;;;;;5005815;28;20624;-81
2023/02/22 00:18:03;;;;;;;55.57;28.20;;;7.80;99.90;;;;;;5007982;28;20218;-82
2023/02/22 00:20:31;;;;;;;68.77;32.00;;;7.80;99.90;;;;;;5025459;28;20203;-81
2023/02/22 00:23:00;;;;;;;70.37;31.17;;;7.80;99.90;;;;;;5025517;28;20302;-80
2023/02/22 00:25:27;;;;;;;73.97;31.63;;;7.70;99.90;;;;;;5025875;28;20206;-82
2023/02/22 00:27:55;;;;;;;78.60;32.77;;;7.70;99.90;;;;;;5025218;28;20199;-81
2023/02/22 00:30:26;;;;;;;69.80;30.17;;;7.70;99.90;;;;;;5025742;28;20272;-81
2023/02/22 00:32:55;;;;;;;73.73;31.83;;;7.70;99.90;;;;;;5025120;28;20241;-81
2023/02/22 00:35:23;;;;;;;64.00;28.50;;;7.70;99.90;;;;;;5024922;28;20233;-82
2023/02/22 00:37:54;;;;;;;75.87;33.07;;;7.70;99.90;;;;;;5024708;28;20215;-81
2023/02/22 00:40:24;;;;;;;68.90;29.33;;;7.70;99.90;;;;;;5026028;28;20191;-82
2023/02/22 00:42:52;;;;;;;81.70;32.97;;;7.70;99.90;;;;;;5024699;28;20622;-82
2023/02/22 00:45:21;;;;;;;83.37;33.43;;;7.70;99.90;;;;;;5027830;28;20249;-84
2023/02/22 00:47:48;;;;;;;78.57;30.27;;;7.70;99.90;;;;;;5029448;28;20504;-84
2023/02/22 00:50:16;;;;;;;78.53;33.07;;;7.70;99.90;;;;;;5018963;28;20321;-84
2023/02/22 00:52:43;;;;;;;79.07;33.03;;;7.70;99.90;;;;;;5021402;28;20293;-83
2023/02/22 00:55:17;;;;;;;78.60;30.93;;;7.70;99.90;;;;;;5028858;28;20249;-84
2023/02/22 00:57:44;;;;;;;78.70;30.47;;;7.70;99.90;;;;;;5028761;28;20210;-84
2023/02/22 01:00:18;;;;;;;76.47;31.13;;;7.70;99.90;;;;;;5027349;28;20217;-83
2023/02/22 01:02:49;;;;;;;74.00;31.83;;;7.70;99.90;;;;;;5024343;28;20592;-82
2023/02/22 01:05:18;;;;;;;80.10;32.77;;;7.70;99.90;;;;;;5024453;28;20250;-82
2023/02/22 01:07:45;;;;;;;75.73;30.73;;;7.70;99.90;;;;;;5013621;28;20294;-81
2023/02/22 01:10:14;;;;;;;81.70;32.23;;;7.70;99.90;;;;;;5004990;28;20333;-81
2023/02/22 01:12:42;;;;;;;81.17;31.73;;;7.60;99.90;;;;;;5004333;28;20191;-82
2023/02/22 01:15:10;;;;;;;83.07;31.37;;;7.60;99.90;;;;;;5004250;28;20210;-83
2023/02/22 01:17:39;;;;;;;83.90;32.07;;;7.60;99.90;;;;;;5003777;28;20214;-82
2023/02/22 01:20:11;;;;;;;77.33;31.37;;;7.60;99.90;;;;;;5004856;28;20492;-82
2023/02/22 01:22:38;;;;;;;84.37;30.90;;;7.60;99.90;;;;;;5005238;28;20580;-81
2023/02/22 01:25:06;;;;;;;92.67;34.37;;;7.60;99.90;;;;;;5004446;28;20203;-81
2023/02/22 01:27:35;;;;;;;80.50;32.67;;;7.60;99.90;;;;;;5004672;28;20192;-80
2023/02/22 01:30:07;;;;;;;91.13;33.17;;;7.60;99.90;;;;;;5008938;28;20210;-81
2023/02/22 01:32:34;;;;;;;84.77;32.43;;;7.60;99.90;;;;;;5024417;28;20234;-78
2023/02/22 01:35:03;;;;;;;90.07;33.63;;;7.60;99.90;;;;;;5024153;28;20599;-81
2023/02/22 01:37:30;;;;;;;84.07;31.97;;;7.60;99.90;;;;;;5023471;28;20261;-81
2023/02/22 01:39:57;;;;;;;80.57;32.00;;;7.50;99.90;;;;;;5023962;28;20208;-82
2023/02/22 01:42:24;;;;;;;87.57;33.43;;;7.50;99.90;;;;;;5023300;28;20631;-82
2023/02/22 01:45:24;;;;;;;85.47;33.43;;;7.50;99.90;;;;;;5004555;28;20632;-80
2023/02/22 01:47:53;;;;;;;80.67;30.30;;;7.50;99.90;;;;;;5010249;28;20289;-80
2023/02/22 01:50:20;;;;;;;78.87;31.67;;;7.50;99.90;;;;;;5024883;28;20238;-81
2023/02/22 01:52:47;;;;;;;76.90;31.53;;;7.40;99.90;;;;;;5024553;28;20282;-81
2023/02/22 01:55:14;;;;;;;80.97;32.77;;;7.40;99.90;;;;;;5024194;28;20203;-80
2023/02/22 01:57:41;;;;;;;82.77;31.63;;;7.40;99.90;;;;;;5025419;28;20191;-80
2023/02/22 02:00:10;;;;;;;81.33;33.03;;;7.30;99.90;;;;;;5023860;28;20202;-79
2023/02/22 02:02:39;;;;;;;79.10;30.83;;;7.30;99.90;;;;;;5024853;28;20202;-80
2023/02/22 02:05:08;;;;;;;76.53;31.20;;;7.30;99.90;;;;;;5025442;28;20209;-81
2023/02/22 02:07:37;;;;;;;79.63;32.57;;;7.20;99.90;;;;;;5024109;28;20202;-80
2023/02/22 02:10:10;;;;;;;73.37;31.13;;;7.20;99.90;;;;;;5024826;28;20209;-80
2023/02/22 02:12:37;;;;;;;75.10;31.07;;;7.20;99.90;;;;;;5005223;28;20251;-80
2023/02/22 02:15:20;;;;;;;75.27;30.63;;;7.20;99.90;;;;;;5005257;28;20206;-81
2023/02/22 02:17:48;;;;;;;77.83;30.40;;;7.20;99.90;;;;;;5004638;28;20646;-81
2023/02/22 02:20:22;;;;;;;72.07;29.63;;;7.20;99.90;;;;;;5005027;28;20207;-81
2023/02/22 02:22:56;;;;;;;69.80;29.80;;;7.20;99.90;;;;;;5006101;28;20187;-81
2023/02/22 02:25:59;;;;;;;71.93;31.30;;;7.20;99.90;;;;;;4992519;28;20210;-80
2023/02/22 02:29:08;;;;;;;73.73;31.00;;;7.20;99.90;;;;;;4989829;28;20734;-81
2023/02/22 02:32:03;;;;;;;71.93;30.37;;;7.10;99.90;;;;;;5004877;28;20206;-80
2023/02/22 02:34:35;;;;;;;78.57;31.30;;;7.20;99.90;;;;;;5002962;28;20318;-82
2023/02/22 02:37:11;;;;;;;73.27;29.53;;;7.20;99.90;;;;;;5002821;28;20525;-81
2023/02/22 02:39:43;;;;;;;69.20;29.83;;;7.10;99.90;;;;;;5004157;28;20614;-81
2023/02/22 02:42:15;;;;;;;62.50;28.90;;;7.10;99.90;;;;;;5003047;28;20210;-80
2023/02/22 02:44:47;;;;;;;64.60;29.60;;;7.10;99.90;;;;;;5004838;28;20207;-81
2023/02/22 02:47:19;;;;;;;59.13;28.50;;;7.00;99.90;;;;;;5005389;28;20239;-80
2023/02/22 02:49:51;;;;;;;59.37;27.30;;;7.00;99.90;;;;;;5008227;28;20569;-81
2023/02/22 02:52:22;;;;;;;57.70;26.37;;;7.00;99.90;;;;;;5000311;28;20208;-81
2023/02/22 02:54:49;;;;;;;58.67;27.33;;;6.90;99.90;;;;;;4988318;28;20541;-80
2023/02/22 02:57:16;;;;;;;57.93;27.57;;;6.90;99.90;;;;;;4988889;28;20649;-81
2023/02/22 02:59:43;;;;;;;63.70;28.30;;;6.90;99.90;;;;;;4988831;28;20602;-80
2023/02/22 03:02:35;;;;;;;55.30;27.07;;;6.90;99.90;;;;;;4987789;28;20525;-81
2023/02/22 03:05:14;;;;;;;52.87;25.80;;;6.90;99.90;;;;;;4993177;28;20322;-81
2023/02/22 03:07:55;;;;;;;53.97;25.80;;;6.90;99.90;;;;;;5008052;28;20198;-82
2023/02/22 03:10:44;;;;;;;52.17;25.90;;;6.80;99.90;;;;;;5008880;28;20286;-81
2023/02/22 03:13:19;;;;;;;53.00;27.07;;;6.90;99.90;;;;;;5027095;28;20203;-81
2023/02/22 03:15:55;;;;;;;54.50;27.17;;;6.80;99.90;;;;;;5026996;28;20783;-82
2023/02/22 03:18:27;;;;;;;53.10;26.73;;;6.80;99.90;;;;;;5027598;28;20246;-81
2023/02/22 03:21:04;;;;;;;49.13;25.90;;;6.80;99.90;;;;;;5027242;28;20288;-81
2023/02/22 03:23:37;;;;;;;53.77;27.27;;;6.80;99.90;;;;;;5026637;28;20213;-82
2023/02/22 03:26:08;;;;;;;48.33;25.73;;;6.80;99.90;;;;;;5028470;28;20277;-82
2023/02/22 03:28:38;;;;;;;53.67;26.57;;;6.80;99.90;;;;;;5011295;28;20286;-83
2023/02/22 03:31:09;;;;;;;49.03;26.23;;;6.80;99.90;;;;;;5011220;28;20195;-83
2023/02/22 03:33:41;;;;;;;45.90;25.03;;;6.70;99.90;;;;;;5011640;28;20184;-82
2023/02/22 03:36:13;;;;;;;48.83;25.20;;;6.70;99.90;;;;;;5013919;28;20234;-82
2023/02/22 03:38:43;;;;;;;45.23;24.90;;;6.70;99.90;;;;;;5029684;28;20257;-82
2023/02/22 03:41:11;;;;;;;49.77;25.67;;;6.70;99.90;;;;;;5029730;28;20238;-81
2023/02/22 03:43:43;;;;;;;50.17;26.80;;;6.70;99.90;;;;;;5029649;28;20289;-82
2023/02/22 03:46:12;;;;;;;43.33;24.60;;;6.60;99.90;;;;;;5028732;28;20429;-82
2023/02/22 03:48:46;;;;;;;45.90;25.43;;;6.50;99.90;;;;;;5029171;28;20195;-81
2023/02/22 03:51:16;;;;;;;49.77;26.90;;;6.50;99.90;;;;;;5028553;28;20226;-82
2023/02/22 03:53:44;;;;;;;44.27;24.37;;;6.50;99.90;;;;;;5028407;28;20221;-82
2023/02/22 03:56:18;;;;;;;49.30;27.07;;;6.50;99.90;;;;;;5009659;28;20235;-81
2023/02/22 03:58:47;;;;;;;50.00;26.90;;;6.40;99.90;;;;;;5015783;28;20210;-83
2023/02/22 04:01:14;;;;;;;49.07;25.43;;;6.40;99.90;;;;;;5029192;28;20822;-82
2023/02/22 04:03:42;;;;;;;43.10;24.60;;;6.30;99.90;;;;;;5028371;28;20221;-82
2023/02/22 04:06:09;;;;;;;48.53;25.00;;;6.30;99.90;;;;;;5024535;28;20603;-84
2023/02/22 04:08:38;;;;;;;50.73;27.03;;;6.30;99.90;;;;;;5025002;28;20215;-81
2023/02/22 04:11:05;;;;;;;49.10;26.00;;;6.30;99.90;;;;;;5025964;28;20241;-82
2023/02/22 04:13:32;;;;;;;50.30;27.10;;;6.30;99.90;;;;;;5012969;28;20309;-82
2023/02/22 04:15:59;;;;;;;54.93;27.27;;;6.30;99.90;;;;;;5006634;28;20198;-80
2023/02/22 04:18:25;;;;;;;47.27;25.50;;;6.30;99.90;;;;;;5006501;28;20330;-80
2023/02/22 04:20:52;;;;;;;48.43;26.03;;;6.20;99.90;;;;;;5005528;28;20297;-81
2023/02/22 04:23:19;;;;;;;50.00;27.27;;;6.20;99.90;;;;;;5006629;28;20830;-80
2023/02/22 04:25:48;;;;;;;51.63;26.67;;;6.20;99.90;;;;;;5005917;28;20634;-82
2023/02/22 04:28:15;;;;;;;50.97;25.33;;;6.20;99.90;;;;;;5005942;28;20292;-82
2023/02/22 04:30:42;;;;;;;50.57;26.50;;;6.20;99.90;;;;;;4998853;28;20219;-82
2023/02/22 04:33:09;;;;;;;54.30;27.77;;;6.20;99.90;;;;;;5006362;28;20479;-81
2023/02/22 04:35:37;;;;;;;49.77;26.13;;;6.10;99.90;;;;;;5006416;28;20621;-80
2023/02/22 04:38:04;;;;;;;54.73;27.47;;;6.10;99.90;;;;;;5025516;28;20236;-82
2023/02/22 04:40:31;;;;;;;48.83;26.73;;;6.10;99.90;;;;;;5018077;28;20199;-81
2023/02/22 04:43:00;;;;;;;53.37;27.40;;;6.10;99.90;;;;;;5006636;28;20238;-81
2023/02/22 04:45:27;;;;;;;52.43;27.60;;;6.10;99.90;;;;;;5006554;28;20207;-81
2023/02/22 04:47:53;;;;;;;50.67;27.00;;;6.00;99.90;;;;;;5004869;28;20207;-81
2023/02/22 04:50:20;;;;;;;57.30;28.70;;;6.00;99.90;;;;;;5005999;28;20218;-82
2023/02/22 04:52:48;;;;;;;53.57;28.00;;;6.00;99.90;;;;;;5005954;28;20290;-80
2023/02/22 04:55:16;;;;;;;51.90;27.27;;;6.00;99.90;;;;;;5005033;28;20601;-81
2023/02/22 04:57:43;;;;;;;58.43;29.50;;;6.00;99.90;;;;;;5013523;28;20234;-81
2023/02/22 05:00:16;;;;;;;52.97;27.00;;;6.00;99.90;;;;;;5005400;28;20331;-82
2023/02/22 05:02:42;;;;;;;59.03;30.33;;;6.00;99.90;;;;;;5009190;28;20297;-80
2023/02/22 05:05:10;;;;;;;56.97;30.90;;;6.00;99.90;;;;;;5025103;28;20672;-79
2023/02/22 05:07:36;;;;;;;58.77;30.40;;;5.90;99.90;;;;;;5025422;28;20206;-81
2023/02/22 05:10:04;;;;;;;56.03;30.23;;;5.90;99.90;;;;;;5023509;28;20211;-81
2023/02/22 05:12:31;;;;;;;52.17;28.23;;;5.90;99.90;;;;;;5025581;28;20238;-82
2023/02/22 05:14:58;;;;;;;60.13;29.13;;;5.90;99.90;;;;;;5019375;28;20225;-80
2023/02/22 05:17:26;;;;;;;60.33;28.03;;;5.80;99.90;;;;;;5004731;28;20237;-80
2023/02/22 05:19:53;;;;;;;55.53;28.60;;;5.80;99.90;;;;;;5004918;28;20213;-81
2023/02/22 05:22:20;;;;;;;57.70;29.20;;;5.80;99.90;;;;;;5004375;28;20203;-81
2023/02/22 05:24:47;;;;;;;62.10;28.73;;;5.80;99.90;;;;;;5018614;28;20827;-82
2023/02/22 05:27:14;;;;;;;57.73;27.83;;;5.80;99.90;;;;;;5027211;28;20206;-83
2023/02/22 05:29:41;;;;;;;57.73;29.87;;;5.80;99.90;;;;;;5025504;28;20203;-82
2023/02/22 05:32:08;;;;;;;63.50;30.00;;;5.80;99.90;;;;;;5025482;28;20316;-82
2023/02/22 05:34:36;;;;;;;59.70;32.80;;;5.70;99.90;;;;;;5025759;28;20221;-82
2023/02/22 05:37:03;;;;;;;59.90;29.10;;;5.70;99.90;;;;;;5024379;28;20232;-82
2023/02/22 05:39:30;;;;;;;61.20;30.43;;;5.70;99.90;;;;;;5023270;28;20213;-83
2023/02/22 05:41:58;;;;;;;58.80;28.23;;;5.70;99.90;;;;;;5024313;28;20281;-81
2023/02/22 05:44:25;;;;;;;64.27;31.80;;;5.70;99.90;;;;;;5007706;28;20214;-81
2023/02/22 05:46:52;;;;;;;63.50;30.47;;;5.70;99.90;;;;;;5005079;28;20199;-81
2023/02/22 05:49:18;;;;;;;71.47;34.60;;;5.70;99.90;;;;;;5004801;28;20226;-82
2023/02/22 05:51:47;;;;;;;68.93;33.60;;;5.80;99.90;;;;;;5003988;28;20227;-81
2023/02/22 05:54:14;;;;;;;69.00;33.37;;;5.80;99.90;;;;;;5004001;28;20689;-82
2023/02/22 05:56:41;;;;;;;69.87;33.40;;;5.80;99.90;;;;;;5019851;28;20546;-81
2023/02/22 05:59:08;;;;;;;68.70;32.63;;;5.80;99.90;;;;;;5023838;28;20313;-81
2023/02/22 06:01:35;;;;;;;71.27;33.23;;;5.80;99.90;;;;;;5024465;28;20205;-82
2023/02/22 06:04:02;;;;;;;77.43;33.57;;;5.80;99.90;;;;;;5023984;28;20206;-81
2023/02/22 06:06:29;;;;;;;73.20;33.33;;;5.70;99.90;;;;;;5015901;28;20213;-81
2023/02/22 06:08:58;;;;;;;70.67;32.07;;;5.70;99.90;;;;;;5004472;28;20217;-80
2023/02/22 06:11:24;;;;;;;75.17;35.23;;;5.70;99.90;;;;;;5004726;28;20691;-80
2023/02/22 06:13:52;;;;;;;75.43;33.23;;;5.80;99.90;;;;;;5005288;28;20503;-82
2023/02/22 06:16:20;;;;;;;70.77;33.33;;;5.80;99.90;;;;;;5005078;28;20675;-81
2023/02/22 06:18:47;;;;;;;72.03;32.57;;;5.80;99.90;;;;;;5004284;28;20227;-82
2023/02/22 06:21:14;;;;;;;71.47;33.10;;;5.80;99.90;;;;;;5006608;28;20199;-81
2023/02/22 06:23:41;;;;;;;74.67;33.03;;;5.70;99.90;;;;;;5008772;28;20863;-82
2023/02/22 06:26:10;;;;;;;66.53;31.00;;;5.80;99.90;;;;;;5008747;28;20230;-81
2023/02/22 06:28:37;;;;;;;67.80;30.90;;;5.80;99.90;;;;;;5007801;28;20207;-81
2023/02/22 06:31:04;;;;;;;66.77;29.00;;;5.70;99.90;;;;;;5008647;28;20971;-81
2023/02/22 06:33:31;;;;;;;65.83;29.63;;;5.70;99.90;;;;;;5008037;28;20502;-80
2023/02/22 06:35:58;;;;;;;61.90;30.10;;;5.80;99.90;;;;;;5009352;28;20599;-81
2023/02/22 06:38:26;;;;;;;67.13;31.07;;;5.70;99.90;;;;;;5027839;28;20919;-81
2023/02/22 06:40:54;;;;;;;64.07;30.10;;;5.70;99.90;;;;;;5027583;28;20225;-82
2023/02/22 06:43:24;;;;;;;64.27;30.03;;;5.70;99.90;;;;;;5028219;28;20340;-81
2023/02/22 06:45:51;;;;;;;67.50;31.63;;;5.70;99.90;;;;;;5021216;28;20568;-82
2023/02/22 06:48:18;;;;;;;66.27;31.57;;;5.70;99.90;;;;;;5008380;28;20203;-81
2023/02/22 06:50:45;;;;;;;72.53;34.13;;;5.70;99.90;;;;;;5008346;28;20635;-82
2023/02/22 06:53:12;;;;;;;73.63;33.97;;;5.70;99.90;;;;;;5027009;28;20210;-81
2023/02/22 06:55:39;;;;;;;71.37;33.07;;;5.70;99.90;;;;;;5026951;28;20213;-81
2023/02/22 06:58:06;;;;;;;64.73;31.63;;;5.70;99.90;;;;;;5026803;28;20337;-82
2023/02/22 07:00:34;;;;;;;81.43;36.53;;;5.70;99.90;;;;;;5025617;28;20692;-82
2023/02/22 07:03:03;;;;;;;73.33;33.87;;;5.80;99.90;;;;;;5025202;28;20646;-83
2023/02/22 07:05:30;;;;;;;68.20;34.47;;;5.80;99.90;;;;;;5025884;28;20301;-83
2023/02/22 07:08:03;;;;;;;77.63;34.50;;;5.80;99.90;;;;;;5027419;28;20202;-83
2023/02/22 07:10:32;;;;;;;82.10;37.50;;;5.80;99.90;;;;;;5030379;28;20202;-82
2023/02/22 07:12:59;;;;;;;71.80;33.67;;;5.80;99.90;;;;;;5029263;28;20221;-82
2023/02/22 07:15:28;;;;;;;74.13;35.57;;;5.80;99.90;;;;;;5009008;28;20874;-82
2023/02/22 07:17:57;;;;;;;73.60;34.40;;;5.80;99.90;;;;;;5011075;28;20230;-82
2023/02/22 07:20:25;;;;;;;73.10;32.83;;;5.80;99.90;;;;;;5030624;28;20262;-83
2023/02/22 07:22:52;;;;;;;74.63;34.80;;;5.80;99.90;;;;;;5028849;28;20195;-82
2023/02/22 07:25:19;;;;;;;75.77;35.10;;;5.80;99.90;;;;;;5028982;28;20218;-82
2023/02/22 07:27:47;;;;;;;70.37;34.17;;;5.80;99.90;;;;;;5029221;28;20213;-82
2023/02/22 07:30:17;;;;;;;77.63;34.27;;;5.80;99.90;;;;;;5028990;28;20249;-83
2023/02/22 07:32:44;;;;;;;75.70;34.00;;;5.80;99.90;;;;;;5029327;28;20249;-83
2023/02/22 07:35:16;;;;;;;71.23;32.40;;;5.80;99.90;;;;;;5025216;28;20234;-82
2023/02/22 07:37:43;;;;;;;67.23;32.07;;;5.90;99.90;;;;;;5009767;28;20211;-83
2023/02/22 07:40:11;;;;;;;77.00;34.63;;;5.90;99.90;;;;;;5009522;28;20195;-82
2023/02/22 07:42:51;;;;;;;73.77;32.77;;;5.90;99.90;;;;;;5009523;28;20549;-82
2023/02/22 07:45:19;;;;;;;73.17;33.33;;;5.90;99.90;;;;;;5012901;28;20217;-83
2023/02/22 07:47:46;;;;;;;76.80;35.27;;;6.00;99.90;;;;;;5029111;28;20293;-83
2023/02/22 07:50:15;;;;;;;77.47;34.60;;;6.00;99.90;;;;;;5028109;28;20227;-82
2023/02/22 07:52:45;;;;;;;78.40;34.23;;;6.00;99.90;;;;;;5028775;28;20285;-83
2023/02/22 07:55:13;;;;;;;83.67;37.40;;;6.00;99.90;;;;;;5028575;28;20587;-83
2023/02/22 07:57:40;;;;;;;75.67;35.70;;;6.00;99.90;;;;;;5028876;28;20221;-83
2023/02/22 08:00:08;;;;;;;83.20;36.30;;;6.10;99.90;;;;;;5026917;28;20663;-83
2023/02/22 08:02:35;;;;;;;80.10;36.60;;;6.10;99.90;;;;;;5024928;28;20210;-83
2023/02/22 08:05:02;;;;;;;77.07;34.33;;;6.10;99.90;;;;;;5024099;28;20867;-82
2023/02/22 08:07:30;;;;;;;70.40;33.63;;;6.10;99.90;;;;;;5026336;28;21004;-81
2023/02/22 08:09:57;;;;;;;76.53;34.27;;;6.20;99.90;;;;;;5017247;28;20222;-81
2023/02/22 08:12:24;;;;;;;81.90;36.00;;;6.20;99.90;;;;;;5005833;28;21092;-82
2023/02/22 08:14:51;;;;;;;77.30;34.13;;;6.20;99.90;;;;;;5005586;28;20199;-81
2023/02/22 08:17:18;;;;;;;79.97;36.87;;;6.20;99.90;;;;;;5005642;28;20689;-81
2023/02/22 08:19:45;;;;;;;75.37;34.87;;;6.20;99.90;;;;;;5012014;28;20244;-83
2023/02/22 08:22:12;;;;;;;77.17;35.10;;;6.20;99.90;;;;;;5024921;28;20214;-81
2023/02/22 08:24:40;;;;;;;79.33;35.27;;;6.20;99.90;;;;;;5021166;28;20203;-81
2023/02/22 08:27:07;;;;;;;76.20;33.70;;;6.30;99.90;;;;;;5020501;28;20206;-82
2023/02/22 08:29:34;;;;;;;73.17;33.10;;;6.30;99.90;;;;;;5026023;28;20534;-81
2023/02/22 08:32:01;;;;;;;70.03;33.30;;;6.30;99.90;;;;;;5026983;28;20202;-81
2023/02/22 08:34:29;;;;;;;79.37;34.67;;;6.40;99.90;;;;;;5001860;28;20198;-82
2023/02/22 08:36:56;;;;;;;76.27;33.63;;;6.40;99.90;;;;;;5033972;28;20190;-82
2023/02/22 08:39:23;;;;;;;79.20;34.07;;;6.40;99.90;;;;;;5023986;28;20313;-83
2023/02/22 08:41:51;;;;;;;78.87;34.50;;;6.50;99.90;;;;;;5019644;28;20932;-81
2023/02/22 08:44:18;;;;;;;73.10;32.07;;;6.50;99.90;;;;;;5041206;28;20206;-82
2023/02/22 08:46:45;;;;;;;68.33;33.23;;;6.50;99.90;;;;;;5029339;28;20199;-80
2023/02/22 08:49:12;;;;;;;76.00;33.47;;;6.50;99.90;;;;;;5027915;28;20207;-81
2023/02/22 08:51:39;;;;;;;69.53;33.03;;;6.50;99.90;;;;;;5023545;28;20593;-81
2023/02/22 08:54:06;;;;;;;63.37;30.50;;;6.50;99.90;;;;;;5039609;28;20190;-84
2023/02/22 08:56:33;;;;;;;67.80;32.43;;;6.50;99.90;;;;;;5026752;28;20210;-81
2023/02/22 08:59:02;;;;;;;64.23;30.93;;;6.60;99.90;;;;;;5025270;28;20809;-83
2023/02/22 09:01:29;;;;;;;56.93;27.03;;;6.60;99.90;;;;;;5023438;28;20209;-82
2023/02/22 09:03:56;;;;;;;53.10;26.03;;;6.60;99.90;;;;;;5025109;28;20833;-81
2023/02/22 09:06:23;;;;;;;51.60;27.10;;;6.60;99.90;;;;;;5024086;28;20560;-84
2023/02/22 09:08:50;;;;;;;52.57;25.53;;;6.60;99.90;;;;;;5026692;28;20540;-85
2023/02/22 09:11:17;;;;;;;50.07;25.47;;;6.60;99.90;;;;;;5027903;28;20226;-84
2023/02/22 09:13:44;;;;;;;50.70;25.00;;;6.70;99.90;;;;;;5027955;28;20265;-84
2023/02/22 09:16:13;;;;;;;54.70;25.93;;;6.70;99.90;;;;;;5027548;28;20599;-82
2023/02/22 09:18:40;;;;;;;51.83;26.97;;;6.70;99.90;;;;;;5026643;28;20341;-83
2023/02/22 09:21:07;;;;;;;53.83;27.47;;;6.70;99.90;;;;;;5026579;28;20207;-81
2023/02/22 09:23:34;;;;;;;59.43;30.47;;;6.70;99.90;;;;;;5023702;28;20206;-80
2023/02/22 09:26:01;;;;;;;59.40;29.10;;;6.70;99.90;;;;;;5025890;28;20221;-82
2023/02/22 09:28:28;;;;;;;61.80;29.50;;;6.70;99.90;;;;;;5024888;28;20750;-82
2023/02/22 09:30:56;;;;;;;61.90;30.77;;;6.70;99.90;;;;;;5019579;28;20206;-82
2023/02/22 09:33:24;;;;;;;57.77;28.90;;;6.80;99.90;;;;;;5026632;28;20230;-82
2023/02/22 09:35:51;;;;;;;57.50;27.43;;;6.80;99.90;;;;;;5026152;28;20293;-82
2023/02/22 09:38:21;;;;;;;51.97;26.60;;;6.80;99.90;;;;;;5010447;28;20313;-81
2023/02/22 09:40:51;;;;;;;49.90;25.37;;;6.90;99.90;;;;;;5005163;28;20216;-81
2023/02/22 09:43:27;;;;;;;51.97;25.53;;;6.90;99.90;;;;;;5008597;28;20194;-82
2023/02/22 09:46:17;;;;;;;49.80;26.03;;;6.90;99.90;;;;;;5007126;28;20298;-84
2023/02/22 09:48:57;;;;;;;48.03;25.67;;;7.00;99.90;;;;;;5006227;28;20225;-83
2023/02/22 09:51:27;;;;;;;53.33;26.57;;;7.00;99.90;;;;;;5006015;28;20223;-83
2023/02/22 09:53:58;;;;;;;51.30;25.83;;;7.10;99.90;;;;;;5006196;28;20507;-83
2023/02/22 09:56:26;;;;;;;51.80;25.30;;;7.10;99.90;;;;;;5006691;28;20200;-84
2023/02/22 09:58:59;;;;;;;47.07;25.27;;;7.20;99.90;;;;;;5005927;28;20231;-80
2023/02/22 10:01:31;;;;;;;51.00;26.17;;;7.30;99.90;;;;;;5006816;28;20289;-83
2023/02/22 10:04:05;;;;;;;51.33;25.73;;;7.30;99.90;;;;;;5009247;28;20231;-81
2023/02/22 10:06:33;;;;;;;54.90;28.20;;;7.40;99.90;;;;;;5024436;28;20201;-81
2023/02/22 10:09:06;;;;;;;54.73;28.67;;;7.50;99.90;;;;;;5017686;28;20234;-83
2023/02/22 10:11:51;;;;;;;54.80;27.50;;;7.50;99.90;;;;;;5012393;28;20321;-81
2023/02/22 10:14:43;;;;;;;53.67;28.70;;;7.50;99.90;;;;;;5020417;28;20225;-81
2023/02/22 10:17:19;;;;;;;56.73;28.43;;;7.60;99.90;;;;;;5021052;28;20566;-81
2023/02/22 10:19:58;;;;;;;54.83;28.60;;;7.70;99.90;;;;;;5021614;28;20258;-80
2023/02/22 10:22:44;;;;;;;49.20;26.10;;;7.70;99.90;;;;;;5023159;28;20799;-81
2023/02/22 10:25:16;;;;;;;54.60;26.57;;;7.80;99.90;;;;;;5021603;28;20202;-80
2023/02/22 10:27:48;;;;;;;48.07;26.50;;;7.90;99.90;;;;;;5022939;28;20218;-79
2023/02/22 10:30:21;;;;;;;47.17;24.40;;;8.00;99.90;;;;;;5017779;28;20203;-80
2023/02/22 10:32:52;;;;;;;43.33;24.17;;;8.00;99.90;;;;;;5022068;28;20310;-81
2023/02/22 10:35:24;;;;;;;42.50;22.73;;;8.00;99.90;;;;;;5023421;28;20221;-78
2023/02/22 10:37:54;;;;;;;42.93;22.87;;;8.10;99.90;;;;;;5022938;28;20218;-82
2023/02/22 10:40:30;;;;;;;41.67;23.13;;;8.10;99.90;;;;;;5009922;28;20216;-81
2023/02/22 10:42:59;;;;;;;40.80;23.07;;;8.20;99.90;;;;;;5022541;28;20210;-82
2023/02/22 10:45:31;;;;;;;40.20;23.10;;;8.20;99.90;;;;;;5022365;28;20217;-84
2023/02/22 10:47:59;;;;;;;47.60;24.90;;;8.20;99.90;;;;;;5021730;28;20284;-83
2023/02/22 10:50:31;;;;;;;40.37;23.40;;;8.30;99.90;;;;;;5023068;28;20335;-84
2023/02/22 10:52:58;;;;;;;41.83;22.70;;;8.30;99.90;;;;;;5022812;28;20306;-79
2023/02/22 10:55:25;;;;;;;42.50;23.10;;;8.30;99.90;;;;;;5023450;28;20294;-80
2023/02/22 10:58:00;;;;;;;43.87;23.53;;;8.30;99.90;;;;;;5023001;28;20621;-81
2023/02/22 11:00:30;;;;;;;42.83;22.53;;;8.40;99.90;;;;;;5021365;28;20301;-82
2023/02/22 11:03:00;;;;;;;39.37;21.93;;;8.40;99.90;;;;;;5021210;28;20215;-81
2023/02/22 11:05:31;;;;;;;39.97;23.03;;;8.40;99.90;;;;;;5021283;28;20253;-81
2023/02/22 11:08:16;;;;;;;39.43;22.40;;;8.40;99.90;;;;;;5023349;28;20242;-83
2023/02/22 11:10:43;;;;;;;39.67;22.37;;;8.40;99.90;;;;;;5030435;28;20246;-81
2023/02/22 11:13:25;;;;;;;38.73;23.17;;;8.40;99.90;;;;;;5017201;28;20305;-83
2023/02/22 11:15:53;;;;;;;35.33;21.77;;;8.40;99.90;;;;;;5034677;28;20226;-83
2023/02/22 11:18:27;;;;;;;36.40;21.27;;;8.40;99.90;;;;;;5031628;28;20207;-84
2023/02/22 11:21:04;;;;;;;36.67;20.33;;;8.40;99.90;;;;;;5034079;28;20211;-85
2023/02/22 11:23:33;;;;;;;38.07;21.70;;;8.40;99.90;;;;;;5031421;28;20218;-84
2023/02/22 11:26:13;;;;;;;38.17;21.33;;;8.40;99.90;;;;;;5026320;28;20222;-83
2023/02/22 11:28:48;;;;;;;35.70;22.10;;;8.40;99.90;;;;;;5034250;28;20235;-85
2023/02/22 11:31:18;;;;;;;35.27;21.57;;;8.50;99.90;;;;;;5031614;28;20305;-84
2023/02/22 11:33:54;;;;;;;38.60;21.27;;;8.60;99.90;;;;;;5033206;28;20641;-84
2023/02/22 11:36:36;;;;;;;31.80;18.97;;;8.60;99.90;;;;;;5030747;28;20214;-84
2023/02/22 11:39:10;;;;;;;30.90;20.53;;;8.70;99.90;;;;;;5030741;28;20313;-85
2023/02/22 11:41:37;;;;;;;38.37;23.20;;;8.70;99.90;;;;;;5027895;28;20841;-85
2023/02/22 11:44:21;;;;;;;34.80;20.70;;;8.70;99.90;;;;;;5023989;28;20207;-81
2023/02/22 11:46:49;;;;;;;34.33;20.37;;;8.80;99.90;;;;;;5025495;28;20198;-80
2023/02/22 11:49:18;;;;;;;33.37;20.80;;;8.80;99.90;;;;;;5025621;28;20638;-80
2023/02/22 11:51:59;;;;;;;33.80;21.63;;;8.80;99.90;;;;;;5025657;28;20625;-81
2023/02/22 11:54:45;;;;;;;33.53;20.50;;;8.90;99.90;;;;;;5013447;28;20214;-79
2023/02/22 11:57:26;;;;;;;30.63;19.70;;;8.90;99.90;;;;;;5005240;28;20191;-81
2023/02/22 12:00:08;;;;;;;31.17;20.47;;;9.00;99.90;;;;;;5005197;28;20227;-83
2023/02/22 12:02:54;;;;;;;30.93;19.93;;;9.00;99.90;;;;;;5013472;28;20615;-81
2023/02/22 12:05:35;;;;;;;29.97;19.53;;;9.10;99.90;;;;;;5025851;28;20195;-82
2023/02/22 12:08:16;;;;;;;32.57;19.53;;;9.10;99.90;;;;;;5024707;28;20597;-81
2023/02/22 12:10:55;;;;;;;31.13;19.87;;;9.20;99.90;;;;;;5005531;28;20549;-80
2023/02/22 12:13:39;;;;;;;28.40;19.47;;;9.10;99.90;;;;;;5025739;28;20202;-81
2023/02/22 12:16:15;;;;;;;31.27;19.13;;;9.20;99.90;;;;;;5025470;28;20203;-81
2023/02/22 12:18:53;;;;;;;31.47;18.83;;;9.20;99.90;;;;;;5022884;28;20826;-80
2023/02/22 12:21:23;;;;;;;31.00;19.97;;;9.20;99.90;;;;;;5023380;28;20186;-80
2023/02/22 12:23:56;;;;;;;35.30;20.57;;;9.30;99.90;;;;;;5024907;28;20206;-83
2023/02/22 12:26:29;;;;;;;29.17;19.30;;;9.30;99.90;;;;;;5018621;28;20249;-81
2023/02/22 12:29:03;;;;;;;26.53;18.80;;;9.40;99.90;;;;;;5005821;28;20198;-81
2023/02/22 12:31:33;;;;;;;32.00;20.40;;;9.40;99.90;;;;;;5005018;28;20199;-81
2023/02/22 12:34:08;;;;;;;29.47;20.27;;;9.40;99.90;;;;;;5005035;28;20222;-80
2023/02/22 12:36:39;;;;;;;31.13;20.07;;;9.50;99.90;;;;;;5006197;28;20513;-80
2023/02/22 12:39:30;;;;;;;30.87;19.90;;;9.50;99.90;;;;;;5005281;28;20695;-80
2023/02/22 12:41:58;;;;;;;30.33;19.20;;;9.60;99.90;;;;;;5005104;28;20754;-80
2023/02/22 12:44:31;;;;;;;32.13;20.80;;;9.60;99.90;;;;;;5006686;28;20607;-79
2023/02/22 12:47:00;;;;;;;32.10;21.20;;;9.60;99.90;;;;;;5004410;28;20241;-81
2023/02/22 12:49:33;;;;;;;32.73;20.37;;;9.60;99.90;;;;;;5003972;28;20199;-81
2023/02/22 12:52:06;;;;;;;29.40;19.47;;;9.70;99.90;;;;;;5003462;28;20231;-82